Latest Weather Observations for Kempsey Airport

IDN60801

Issued at 6:05 pm EST Thursday 21 August 2014 (issued every 30 minutes, with the page automatically refreshed every 10 minutes)

About weather observations | Map of weather stations | Latest weather observations for NSW | Other Formats
Station Details ID: 059007 Name: KEMPSEY AIRPORT AWS Lat: -31.07 Lon: 152.77 Height: 13.0 m
Data from the previous 72 hours. | See also: Recent months for locations in New South Wales
Date/Time
EST
Temp
°C
App
Temp
°C
Dew
Point
Rel
Hum
%
Delta-T
°C
Wind Press
QNH
hPa
Press
MSL
hPa
Rain
since 9 am
mm
Dir
 
Spd
km/h
Gust
km/h
Spd
kts
Gust
kts
21/06:00pm 12.1 10.6 9.3 83 1.4 SSW 7 11 4 6 1026.3 1026.3 0.0
21/05:30pm 14.5 13.0 10.5 77 2.1 SE 9 13 5 7 1026.0 - 0.0
21/05:00pm 16.1 12.8 9.5 65 3.4 SE 17 24 9 13 1025.7 1025.7 0.0
21/04:30pm 16.1 13.5 9.5 65 3.4 S 13 17 7 9 1025.3 - 0.0
21/04:00pm 17.1 14.6 9.8 62 3.8 S 13 15 7 8 1025.0 1025.0 0.0
21/03:30pm 17.0 14.4 9.2 60 4.0 SE 13 19 7 10 1024.9 - 0.0
21/03:00pm 17.8 16.0 9.4 58 4.4 SSE 9 13 5 7 1024.6 1024.6 0.0
21/02:30pm 17.4 15.2 9.3 59 4.2 SE 11 17 6 9 1024.7 - 0.0
21/02:00pm 17.0 12.7 9.2 60 4.0 SE 22 32 12 17 1024.8 1024.8 0.0
21/01:30pm 19.3 16.1 8.3 49 5.7 SSE 15 32 8 17 1024.6 - 0.0
21/01:00pm 18.3 14.9 9.1 55 4.8 S 17 22 9 12 1024.9 1024.9 0.0
21/12:30pm 17.8 14.5 9.7 59 4.3 SSE 17 24 9 13 1025.4 - 0.0
21/12:00pm 17.3 11.7 8.7 57 4.4 SE 28 35 15 19 1025.7 1025.7 0.0
21/11:30am 18.5 15.7 8.5 52 5.2 S 13 20 7 11 1026.1 - 0.0
21/11:00am 19.2 16.2 9.1 52 5.3 SSE 15 20 8 11 1026.2 1026.2 0.0
21/10:30am 18.3 15.2 8.8 54 4.9 S 15 22 8 12 1026.5 - 0.0
21/10:00am 17.2 13.5 8.1 55 4.6 S 17 24 9 13 1026.6 1026.6 0.0
21/09:30am 17.7 14.2 8.6 55 4.7 SSW 17 24 9 13 1026.7 - 0.0
21/09:00am 15.6 13.6 8.6 63 3.5 W 9 17 5 9 1026.9 1026.9 0.0
21/08:30am 13.6 11.1 8.2 70 2.7 W 11 13 6 7 1026.8 - 0.0
21/08:00am 11.1 8.4 7.4 78 1.8 WNW 11 13 6 7 1026.9 1026.9 0.0
21/07:30am 8.9 6.3 6.3 84 1.2 WNW 9 13 5 7 1026.6 - 0.0
21/07:00am 8.5 5.2 6.6 88 0.9 WNW 13 17 7 9 1026.2 1026.2 0.0
21/06:30am 7.7 4.4 6.3 91 0.6 W 13 15 7 8 1026.1 - 0.0
21/06:00am 6.0 2.7 4.3 89 0.7 WSW 11 13 6 7 1025.7 1025.7 0.0
21/05:30am 7.2 5.4 5.3 88 0.8 WNW 4 7 2 4 1025.4 - 0.0
21/05:00am 7.1 5.0 5.7 91 0.6 WNW 6 7 3 4 1025.2 1025.2 0.0
21/04:30am 6.6 3.8 5.1 90 0.7 W 9 11 5 6 1025.0 - 0.0
21/04:00am 7.0 4.2 5.3 89 0.7 W 9 11 5 6 1024.9 1024.9 0.0
21/03:30am 8.1 6.0 6.6 90 0.7 WNW 7 7 4 4 1024.8 - 0.0
21/03:00am 8.2 6.1 6.8 91 0.6 W 7 9 4 5 1024.7 1024.7 0.0
21/02:30am 7.8 5.4 5.4 85 1.1 W 7 7 4 4 1024.7 - 0.0
21/02:00am 9.4 6.9 6.7 83 1.3 W 9 11 5 6 1024.7 1024.7 0.0
21/01:30am 10.8 8.8 7.1 78 1.8 W 7 11 4 6 1024.9 - 0.0
21/01:00am 11.4 8.4 7.5 77 1.9 SSW 13 19 7 10 1025.0 1025.0 0.0
21/12:30am 12.0 8.6 7.7 75 2.1 SSW 15 19 8 10 1024.8 - 0.0
21/12:00am 11.5 8.1 7.6 77 1.9 SW 15 19 8 10 1024.7 1024.7 0.0
 
Date/Time
EST
Temp
°C
App
Temp
°C
Dew
Point
Rel
Hum
%
Delta-T
°C
Wind Press
QNH
hPa
Press
MSL
hPa
Rain
since 9 am
mm
Dir
 
Spd
km/h
Gust
km/h
Spd
kts
Gust
kts
20/11:30pm 11.4 7.9 7.1 75 2.1 SW 15 20 8 11 1024.8 - 0.0
20/11:00pm 12.0 8.5 7.3 73 2.3 SSW 15 22 8 12 1024.9 1024.9 0.0
20/10:30pm 11.7 8.6 7.2 74 2.2 SW 13 17 7 9 1024.9 - 0.0
20/10:00pm 12.1 8.6 7.0 71 2.4 SW 15 19 8 10 1025.0 1025.0 0.0
20/09:30pm 12.5 8.6 7.0 69 2.6 SW 17 20 9 11 1025.0 - 0.0
20/09:00pm 12.9 8.5 6.7 66 3.0 SW 19 30 10 16 1024.8 1024.8 0.0
20/08:30pm 13.0 9.4 6.8 66 3.0 SW 15 19 8 10 1024.7 - 0.0
20/08:00pm 13.6 10.4 6.7 63 3.3 SSW 13 22 7 12 1024.4 1024.4 0.0
20/07:30pm 14.2 11.0 6.8 61 3.6 SSW 13 20 7 11 1024.0 - 0.0
20/07:00pm 14.9 11.4 7.2 60 3.8 S 15 19 8 10 1023.8 1023.8 0.0
20/06:30pm 15.0 11.2 7.5 61 3.7 S 17 24 9 13 1023.4 - 0.0
20/06:00pm 15.1 12.0 7.4 60 3.8 S 13 22 7 12 1023.0 1023.0 0.0
20/05:30pm 15.1 12.4 7.4 60 3.8 S 11 15 6 8 1022.7 - 0.0
20/05:00pm 15.8 12.9 6.5 54 4.5 SSW 11 13 6 7 1022.3 1022.3 0.0
20/04:30pm 16.5 12.0 6.9 53 4.7 S 20 33 11 18 1021.9 - 0.0
20/04:00pm 16.4 10.2 6.2 51 4.9 S 28 39 15 21 1021.5 1021.5 0.0
20/03:30pm 17.2 12.4 7.3 52 5.0 S 22 33 12 18 1021.1 - 0.0
20/03:00pm 18.9 13.8 6.1 43 6.3 S 22 30 12 16 1020.6 1020.6 0.0
20/02:30pm 19.8 14.2 5.5 39 7.0 SSW 24 35 13 19 1020.5 - 0.0
20/02:00pm 19.8 14.4 6.5 42 6.6 SSW 24 35 13 19 1020.5 1020.5 0.0
20/01:30pm 19.1 13.7 6.2 43 6.4 SSW 24 33 13 18 1020.5 - 0.0
20/01:00pm 19.9 14.9 6.6 42 6.7 SSW 22 32 12 17 1020.7 1020.7 0.0
20/12:30pm 18.4 13.3 5.9 44 6.1 SSW 22 39 12 21 1021.1 - 0.0
20/12:00pm 18.9 14.0 6.7 45 6.1 SSW 22 30 12 16 1021.4 1021.4 0.0
20/11:30am 18.9 12.8 6.7 45 6.1 SW 28 37 15 20 1021.6 - 0.0
20/11:00am 18.9 12.5 7.0 46 6.0 SSW 30 41 16 22 1021.9 1021.9 0.0
20/10:30am 18.3 11.9 6.8 47 5.7 SSW 30 41 16 22 1021.9 - 0.0
20/10:06am 17.9 11.8 6.7 48 5.6 SSW 28 46 15 25 1021.9 - 0.0
20/10:00am 18.5 12.3 7.9 50 5.4 SW 30 41 16 22 1021.9 1021.9 0.0
20/09:30am 17.3 11.4 7.4 52 5.0 SSW 28 43 15 23 1021.7 - 0.0
20/09:00am 16.2 10.0 7.9 58 4.2 SSW 30 41 16 22 1021.7 1021.7 1.2
20/08:30am 16.1 11.2 8.3 60 4.0 SW 24 35 13 19 1021.7 - 1.2
20/08:00am 14.3 8.9 7.8 65 3.2 SW 26 35 14 19 1021.5 1021.5 1.2
20/07:30am 13.8 9.5 8.0 68 2.9 SW 20 28 11 15 1021.2 - 1.2
20/07:00am 13.3 9.2 7.7 69 2.7 SW 19 28 10 15 1020.9 1020.9 1.2
20/06:30am 12.9 8.7 7.6 70 2.6 SW 19 24 10 13 1020.4 - 1.2
20/06:00am 12.5 8.7 7.6 72 2.4 SW 17 24 9 13 1019.8 1019.8 1.2
20/05:30am 12.4 8.6 7.5 72 2.4 SW 17 26 9 14 1019.3 - 1.2
20/05:00am 12.6 8.2 7.5 71 2.5 SW 20 26 11 14 1018.9 1018.9 1.2
20/04:30am 12.7 8.6 7.8 72 2.4 SW 19 26 10 14 1018.8 - 1.2
20/04:00am 12.6 8.8 7.7 72 2.4 SW 17 26 9 14 1018.4 1018.4 1.2
20/03:30am 13.2 8.9 7.9 70 2.6 SW 20 28 11 15 1018.2 - 1.2
20/03:00am 13.1 8.4 7.8 70 2.6 SW 22 30 12 16 1017.9 1017.9 1.2
20/02:30am 13.0 8.9 7.9 71 2.5 SW 19 26 10 14 1017.9 - 1.2
20/02:00am 13.2 8.5 7.6 69 2.7 SW 22 33 12 18 1017.7 1017.7 1.2
20/01:30am 13.3 8.6 7.7 69 2.8 SW 22 32 12 17 1017.7 - 1.2
20/01:00am 13.6 9.5 7.8 68 2.9 SSW 19 26 10 14 1017.8 1017.8 1.2
20/12:30am 13.4 9.0 7.4 67 2.9 SW 20 30 11 16 1017.7 - 1.2
20/12:00am 14.0 9.2 7.5 65 3.2 SSW 22 33 12 18 1017.6 1017.6 1.2
 
Date/Time
EST
Temp
°C
App
Temp
°C
Dew
Point
Rel
Hum
%
Delta-T
°C
Wind Press
QNH
hPa
Press
MSL
hPa
Rain
since 9 am
mm
Dir
 
Spd
km/h
Gust
km/h
Spd
kts
Gust
kts
19/11:30pm 13.8 8.7 7.6 66 3.0 SW 24 39 13 21 1017.6 - 1.2
19/11:00pm 14.0 8.9 7.8 66 3.1 SW 24 35 13 19 1017.5 1017.5 1.2
19/10:30pm 13.9 9.6 7.7 66 3.1 SW 20 32 11 17 1017.3 - 1.2
19/10:00pm 14.1 9.5 8.1 67 3.0 SW 22 32 12 17 1017.3 1017.3 1.2
19/09:30pm 14.3 10.1 8.3 67 3.0 SW 20 30 11 16 1017.4 - 1.2
19/09:00pm 14.3 10.1 8.3 67 3.0 SW 20 39 11 21 1017.1 1017.1 1.2
19/08:30pm 14.0 9.8 8.4 69 2.8 SW 20 30 11 16 1017.0 - 1.2
19/08:00pm 14.3 9.8 8.5 68 2.9 SW 22 32 12 17 1016.8 1016.8 1.2
19/07:30pm 14.5 8.8 8.2 66 3.2 SW 28 39 15 21 1016.4 - 1.2
19/07:00pm 14.5 9.9 8.2 66 3.1 SW 22 33 12 18 1015.9 1015.9 1.2
19/06:30pm 14.7 9.7 8.2 65 3.3 SW 24 35 13 19 1015.5 - 1.2
19/06:10pm 14.9 9.2 8.2 64 3.4 SW 28 46 15 25 1015.2 - 1.2
19/06:00pm 15.0 9.7 8.3 64 3.4 SSW 26 43 14 23 1015.0 1015.0 1.2
19/05:30pm 15.1 9.5 8.8 66 3.2 SW 28 41 15 22 1014.2 - 1.2
19/05:00pm 15.4 10.7 9.3 67 3.1 SSW 24 35 13 19 1013.8 1013.8 1.2
19/04:42pm 15.7 10.4 9.8 68 3.1 SSW 28 46 15 25 1013.7 - 1.2
19/04:30pm 16.0 10.2 9.4 65 3.4 SW 30 43 16 23 1013.5 - 1.2
19/04:00pm 17.0 14.3 12.9 77 2.3 SW 19 30 10 16 1012.9 1012.9 1.2
19/03:30pm 16.6 14.7 12.9 79 2.1 SSW 15 19 8 10 1012.6 - 1.2
19/03:00pm 18.6 14.2 9.1 54 5.0 WSW 22 32 12 17 1012.2 1012.2 0.0
19/02:30pm 18.6 14.9 9.4 55 4.8 SSW 19 28 10 15 1012.0 - 0.0
19/02:00pm 18.1 13.7 8.9 55 4.8 SW 22 41 12 22 1011.9 1011.9 0.0
19/01:30pm 17.7 14.0 9.3 58 4.4 SW 19 24 10 13 1011.7 - 0.0
19/01:00pm 17.5 12.5 9.4 59 4.2 SSW 26 37 14 20 1011.6 1011.6 0.0
19/12:30pm 17.9 13.7 9.8 59 4.3 SSW 22 32 12 17 1011.6 - 0.0
19/12:00pm 17.3 13.7 10.4 64 3.7 SW 20 26 11 14 1011.9 1011.9 0.0
19/11:30am 17.8 13.9 10.7 63 3.8 SW 22 32 12 17 1012.1 - 0.0
19/11:00am 17.0 12.1 9.9 63 3.7 SW 26 43 14 23 1012.2 1012.2 0.0
19/10:31am 17.5 12.0 9.2 58 4.3 SSW 28 46 15 25 1012.3 - 0.0
19/10:30am 17.6 12.5 9.2 58 4.4 SSW 26 37 14 20 1012.3 - 0.0
19/10:00am 18.1 11.7 8.7 54 4.9 SW 32 43 17 23 1011.9 1011.9 0.0
19/09:30am 18.7 14.2 8.4 51 5.3 SW 22 30 12 16 1011.5 - 0.0
19/09:00am 18.6 13.4 7.4 48 5.7 WSW 24 33 13 18 1011.4 1011.4 0.0
19/08:49am 19.0 13.0 7.1 46 6.0 SW 28 37 15 20 1011.3 - 0.0
19/08:30am 18.0 15.5 6.5 47 5.7 WNW 9 15 5 8 1011.1 - 0.0
19/08:00am 16.4 14.0 7.1 54 4.6 NNW 9 13 5 7 1010.7 1010.7 0.0
19/07:30am 14.4 13.4 7.2 62 3.5 NNE 2 7 1 4 1010.4 - 0.0
19/07:00am 11.4 8.7 7.5 77 1.9 N 11 13 6 7 1010.0 1010.0 0.0
19/06:30am 11.1 7.6 5.6 69 2.5 W 13 15 7 8 1009.5 - 0.0
19/06:00am 9.8 6.8 5.8 76 1.8 W 11 13 6 7 1009.2 1009.2 0.0
19/05:30am 12.4 9.7 5.8 64 3.1 W 9 11 5 6 1008.9 - 0.0
19/05:00am 14.0 10.3 6.1 59 3.8 W 15 20 8 11 1008.5 1008.5 0.0
19/04:30am 14.0 10.1 7.1 63 3.4 W 17 26 9 14 1008.1 - 0.0
19/04:00am 12.1 8.9 6.8 70 2.5 WSW 13 20 7 11 1007.9 1007.9 0.0
19/03:30am 13.7 11.6 6.6 62 3.4 W 7 11 4 6 1007.9 - 0.0
19/03:00am 14.3 11.7 6.2 58 3.9 WSW 9 13 5 7 1007.8 1007.8 0.0
19/02:30am 16.2 11.7 6.9 54 4.6 WSW 20 35 11 19 1007.6 - 0.0
19/02:00am 14.4 11.0 7.7 64 3.3 WSW 15 26 8 14 1007.6 1007.6 0.0
19/01:30am 12.8 10.9 7.5 70 2.6 SSW 7 11 4 6 1007.6 - 0.0
19/01:00am 13.2 10.4 7.0 66 3.0 WSW 11 13 6 7 1007.3 1007.3 0.0
19/12:30am 15.3 11.6 7.8 61 3.7 WNW 17 20 9 11 1007.0 - 0.0
19/12:00am 12.7 10.0 7.4 70 2.6 WNW 11 17 6 9 1006.7 1006.7 0.0
 
Date/Time
EST
Temp
°C
App
Temp
°C
Dew
Point
Rel
Hum
%
Delta-T
°C
Wind Press
QNH
hPa
Press
MSL
hPa
Rain
since 9 am
mm
Dir
 
Spd
km/h
Gust
km/h
Spd
kts
Gust
kts
18/11:30pm 14.0 10.9 7.3 64 3.3 WNW 13 19 7 10 1006.6 - 0.0
18/11:00pm 14.2 11.2 7.7 65 3.2 NW 13 20 7 11 1006.6 1006.6 0.0
18/10:30pm 10.3 8.0 7.5 83 1.3 NW 9 17 5 9 1006.6 - 0.0
18/10:00pm 9.1 6.8 5.8 80 1.5 W 7 13 4 7 1006.6 1006.6 0.0
18/09:30pm 13.3 10.3 7.5 68 2.8 NW 13 19 7 10 1006.5 - 0.0
18/09:00pm 9.4 7.5 6.8 84 1.2 W 6 11 3 6 1006.8 1006.8 0.0
18/08:30pm 10.2 8.6 6.5 78 1.7 NNW 4 9 2 5 1006.9 - 0.0
18/08:00pm 12.3 11.3 7.4 72 2.4 E 2 7 1 4 1006.6 1006.6 0.0
18/07:30pm 14.1 12.2 7.4 64 3.3 WNW 7 13 4 7 1006.5 - 0.0
18/07:00pm 14.1 11.4 7.4 64 3.3 NW 11 13 6 7 1006.2 1006.2 0.0
18/06:30pm 15.9 13.2 7.4 57 4.2 WNW 11 15 6 8 1006.0 - 0.0

Other Formats:

Comma delimited format used in spreadsheet applications
http://www.bom.gov.au/fwo/IDN60801/IDN60801.94785.axf

JavaScript Object Notation format (JSON) in row-major order
http://www.bom.gov.au/fwo/IDN60801/IDN60801.94785.json